Terminal Aerodrome Forecast
Issued by NWS

Home | Current Version | Previous Version | Text Only | Print | Product List | Glossary On
Versions: 1 2 3 4 5 6 7 8 9 10 11 12 13 14 15 16 17
000
FTUS43 KAPX 012300
TAFAPN
TAF
KAPN 012328Z 0200/0224 11006KT P6SM FEW080
     FM020100 00000KT P6SM SKC
     FM021400 02004KT P6SM SKC
     FM021700 06007KT P6SM FEW060=

USA.gov is the U.S. government's official web portal to all federal, state and local government web resources and services.